DW6101 Cognac FR current weather conditions

sailwx.info

Wind from 102

Air temperature 25.6° C
Dewpoint 18.7° C

Last reported at 2019-Jun-27 06:46 UTC.
Time now 2019-Jun-27 08:04 UTC

Location: N 45°42' W 000°20'.
View on Google Maps.

See reports from other nearby stations

  
Tides and Currents Weather Stations Pressure Air Temp Water Temp Dewpoint Dewpoint Depression Visibility Wind Speed Wind Dir Waves Ship Positions
date/time (UTC)wind fromknots sea level pressurealtimeterstation pressurevisibilityair tempwater tempwave heightnotes
2019-Jun-27 06:46 102 25.6
2019-Jun-27 06:17 123 22.8
2019-Jun-27 05:46 157 1 gusting 2 21.7
2019-Jun-27 05:16 156 1 gusting 3 20.6
2019-Jun-27 05:00 138 0 gusting 4 20.6
2019-Jun-27 03:45 147 0 gusting 2 19.4
2019-Jun-27 03:16 144 1 gusting 2 19.4
2019-Jun-27 02:45 142 20.0
2019-Jun-27 02:16 121 0 gusting 2 20.0
2019-Jun-27 01:46 121 20.6
2019-Jun-27 01:30 150 20.6
2019-Jun-27 01:17 150 21.1
2019-Jun-27 00:47 150 21.7
2019-Jun-26 23:16 265 22.2
2019-Jun-26 11:46 073 2 gusting 8 32.8
2019-Jun-26 10:47 154 0 gusting 11 32.2
2019-Jun-26 10:15 132 1 gusting 6 31.7
2019-Jun-26 09:30 129 3 gusting 7 30.0
2019-Jun-26 09:16 102 3 gusting 8 29.4
2019-Jun-26 08:46 150 2 gusting 6 28.9
2019-Jun-26 08:17 125 1 gusting 5 27.8
2019-Jun-26 08:02 132 1 gusting 4 27.8
2019-Jun-26 04:47 066 16.1
2019-Jun-26 04:15 066 16.7
2019-Jun-26 03:15 066 17.2
2019-Jun-26 02:16 066 18.3
2019-Jun-26 01:16 074 20.0
2019-Jun-26 00:16 013 22.2
2019-Jun-26 00:01 013 22.2
2019-Jun-25 23:47 043 1 gusting 4 22.2
2019-Jun-25 22:16 030 21.7
2019-Jun-25 22:00 030 22.2
2019-Jun-25 21:46 030 22.8
2019-Jun-25 20:46 030 0 gusting 2 25.0
2019-Jun-25 20:17 036 0 gusting 3 26.1
2019-Jun-25 19:45 024 1 gusting 4 26.7
2019-Jun-25 19:16 291 27.8
2019-Jun-25 18:30 250 30.6
2019-Jun-25 18:16 250 31.1
2019-Jun-25 17:45 250 31.7
2019-Jun-25 17:30 268 0 gusting 2 31.7
2019-Jun-25 16:30 241 1 gusting 4 31.1
2019-Jun-25 16:16 209 31.1
2019-Jun-25 15:17 095 0 gusting 6 30.0
2019-Jun-25 09:00 216 1 gusting 4 24.4
2019-Jun-25 08:46 158 23.9